Terminal Aerodrome Forecast
Issued by NWS Wakefield, VA

Home | Current Version | Previous Version | Text Only | Print | Product List | Glossary On
Versions: 1 2 3 4 5 6 7 8 9 10 11 12
000
FTUS41 KAKQ 170500
TAFSBY
TAF
KSBY 170521Z 1706/1806 01005KT P6SM SCT080
     FM170800 04005KT P6SM BKN050
     FM171500 08008KT P6SM SCT030 BKN050=

USA.gov is the U.S. government's official web portal to all federal, state and local government web resources and services.